Time;durP1;ratioP1;P1;durP2;ratioP2;P2;SDS_P1;SDS_P2;PMS_P1;PMS_P2;Temp;Humidity;BMP_temperature;BMP_pressure;BME280_temperature;BME280_humidity;BME280_pressure;Samples;Min_cycle;Max_cycle;Signal;HPM_P1;HPM_P2
2024/01/27 00:02:09;;;;;;;;;;;;;;;10.88;58.88;100324.84;4471841;32;34244;-80
2024/01/27 00:04:37;;;;;;;;;;;;;;;11.08;58.11;100324.16;4470311;32;34512;-80
2024/01/27 00:07:04;;;;;;;;;;;;;;;10.91;58.35;100330.19;4475361;32;34821;-80
2024/01/27 00:09:32;;;;;;;;;;;;;;;11.14;58.00;100321.87;4469768;32;33048;-80
2024/01/27 00:11:59;;;;;;;;;;;;;;;11.23;57.45;100318.87;4470549;32;34935;-81
2024/01/27 00:14:27;;;;;;;;;;;;;;;11.23;57.49;100328.34;4470599;32;33190;-80
2024/01/27 00:16:54;;;;;;;;;;;;;;;11.43;56.31;100338.00;4477327;32;34583;-81
2024/01/27 00:19:22;;;;;;;;;;;;;;;10.89;57.37;100316.25;4470139;32;33269;-79
2024/01/27 00:21:50;;;;;;;;;;;;;;;10.31;58.20;100346.03;4466941;32;34107;-80
2024/01/27 00:24:17;;;;;;;;;;;;;;;10.84;56.68;100348.84;4473502;32;33869;-79
2024/01/27 00:26:44;;;;;;;;;;;;;;;10.87;55.01;100338.59;4477636;32;33804;-80
2024/01/27 00:29:12;;;;;;;;;;;;;;;10.57;54.77;100354.34;4473071;32;32665;-79
2024/01/27 00:31:39;;;;;;;;;;;;;;;10.72;54.31;100357.75;4466022;32;34889;-80
2024/01/27 00:34:07;;;;;;;;;;;;;;;10.62;54.09;100347.66;4461958;32;32651;-80
2024/01/27 00:36:36;;;;;;;;;;;;;;;10.78;53.42;100365.84;4463745;32;34158;-79
2024/01/27 00:39:04;;;;;;;;;;;;;;;10.90;52.73;100390.63;4477272;32;33207;-80
2024/01/27 00:41:31;;;;;;;;;;;;;;;11.04;52.48;100368.00;4480049;32;34203;-79
2024/01/27 00:43:59;;;;;;;;;;;;;;;10.72;52.59;100386.25;4467577;32;34849;-79
2024/01/27 00:46:26;;;;;;;;;;;;;;;11.04;51.86;100376.66;4477649;32;33614;-79
2024/01/27 00:48:54;;;;;;;;;;;;;;;11.32;51.29;100380.66;4462288;32;33887;-79
2024/01/27 00:51:23;;;;;;;;;;;;;;;11.33;51.46;100418.78;4474122;32;34183;-79
2024/01/27 00:53:50;;;;;;;;;;;;;;;11.85;50.12;100416.22;4469188;32;34328;-79
2024/01/27 00:56:18;;;;;;;;;;;;;;;11.98;49.96;100435.94;4465660;32;34095;-80
2024/01/27 00:58:45;;;;;;;;;;;;;;;11.50;51.05;100432.63;4469549;32;33224;-80
2024/01/27 01:01:12;;;;;;;;;;;;;;;11.11;51.92;100469.53;4470163;32;34826;-79
2024/01/27 01:03:40;;;;;;;;;;;;;;;10.82;52.10;100463.66;4472794;32;34767;-80
2024/01/27 01:06:07;;;;;;;;;;;;;;;10.60;53.17;100478.81;4469230;32;33946;-78
2024/01/27 01:08:35;;;;;;;;;;;;;;;10.77;53.22;100467.69;4453974;32;32753;-79
2024/01/27 01:11:02;;;;;;;;;;;;;;;11.00;52.62;100465.47;4455567;32;34602;-79
2024/01/27 01:13:29;;;;;;;;;;;;;;;10.98;52.54;100448.94;4457373;32;34022;-79
2024/01/27 01:15:57;;;;;;;;;;;;;;;11.46;51.82;100478.25;4459491;32;33856;-79
2024/01/27 01:18:24;;;;;;;;;;;;;;;11.48;51.57;100471.44;4456948;32;32805;-79
2024/01/27 01:20:52;;;;;;;;;;;;;;;11.52;51.19;100469.91;4457897;32;33259;-79
2024/01/27 01:23:19;;;;;;;;;;;;;;;11.68;51.10;100466.38;4449142;32;34842;-78
2024/01/27 01:25:46;;;;;;;;;;;;;;;11.42;51.26;100481.50;4453889;32;33666;-78
2024/01/27 01:28:14;;;;;;;;;;;;;;;11.26;51.97;100489.28;4454530;32;33048;-79
2024/01/27 01:30:41;;;;;;;;;;;;;;;11.86;50.66;100490.69;4453849;32;34128;-79
2024/01/27 01:33:10;;;;;;;;;;;;;;;12.05;50.10;100481.25;4454802;32;32404;-79
2024/01/27 01:35:37;;;;;;;;;;;;;;;11.73;50.10;100493.47;4460648;32;32638;-79
2024/01/27 01:38:04;;;;;;;;;;;;;;;12.03;49.89;100503.66;4452147;32;33496;-79
2024/01/27 01:40:32;;;;;;;;;;;;;;;12.43;48.75;100485.72;4454205;32;33487;-79
2024/01/27 01:42:59;;;;;;;;;;;;;;;12.38;48.32;100498.50;4456475;32;33950;-79
2024/01/27 01:45:27;;;;;;;;;;;;;;;12.23;48.59;100513.34;4456535;32;33549;-79
2024/01/27 01:47:54;;;;;;;;;;;;;;;12.37;48.14;100506.22;4458859;32;33303;-79
2024/01/27 01:50:22;;;;;;;;;;;;;;;12.37;47.36;100517.47;4453596;32;33568;-79
2024/01/27 01:52:49;;;;;;;;;;;;;;;11.99;47.89;100524.28;4453897;32;33891;-79
2024/01/27 01:55:17;;;;;;;;;;;;;;;11.41;49.03;100522.13;4462548;32;35305;-79
2024/01/27 01:57:44;;;;;;;;;;;;;;;11.92;47.97;100540.34;4453359;32;33711;-79
2024/01/27 02:00:12;;;;;;;;;;;;;;;12.04;47.22;100547.00;4454014;32;33609;-79
2024/01/27 02:02:40;;;;;;;;;;;;;;;11.97;46.99;100545.78;4454064;32;33889;-79
2024/01/27 02:05:09;;;;;;;;;;;;;;;11.84;46.63;100552.03;4454665;32;34160;-79
2024/01/27 02:07:37;;;;;;;;;;;;;;;12.14;45.94;100559.63;4465185;32;33048;-78
2024/01/27 02:10:05;;;;;;;;;;;;;;;11.93;45.77;100560.28;4469881;32;35020;-79
2024/01/27 02:12:32;;;;;;;;;;;;;;;11.83;45.87;100568.41;4469397;32;34204;-79
2024/01/27 02:14:59;;;;;;;;;;;;;;;11.43;46.55;100571.47;4469621;32;33668;-79
2024/01/27 02:17:28;;;;;;;;;;;;;;;11.19;46.71;100551.19;4475315;32;33932;-79
2024/01/27 02:19:55;;;;;;;;;;;;;;;11.87;45.45;100559.94;4466553;32;34077;-79
2024/01/27 02:22:22;;;;;;;;;;;;;;;11.76;45.30;100545.53;4468934;32;34082;-79
2024/01/27 02:24:50;;;;;;;;;;;;;;;11.78;45.28;100541.31;4473542;32;34889;-78
2024/01/27 02:27:17;;;;;;;;;;;;;;;12.02;44.52;100538.22;4481912;32;33594;-79
2024/01/27 02:29:44;;;;;;;;;;;;;;;11.67;44.85;100539.88;4472106;32;35576;-79
2024/01/27 02:32:12;;;;;;;;;;;;;;;11.53;45.28;100537.44;4468773;32;34697;-79
2024/01/27 02:34:39;;;;;;;;;;;;;;;11.56;44.70;100531.53;4470171;32;34047;-79
2024/01/27 02:37:09;;;;;;;;;;;;;;;11.51;45.43;100507.94;4471349;32;33286;-79
2024/01/27 02:39:36;;;;;;;;;;;;;;;11.09;46.27;100528.19;4468747;32;34869;-79
2024/01/27 02:42:03;;;;;;;;;;;;;;;11.14;46.13;100510.28;4468594;32;35171;-79
2024/01/27 02:44:31;;;;;;;;;;;;;;;11.26;45.66;100530.78;4470888;32;34029;-78
2024/01/27 02:46:58;;;;;;;;;;;;;;;11.01;45.62;100526.88;4481572;32;33235;-77
2024/01/27 02:49:25;;;;;;;;;;;;;;;11.09;45.85;100535.06;4468414;32;34288;-79
2024/01/27 02:51:53;;;;;;;;;;;;;;;10.61;46.77;100558.34;4472972;32;34855;-79
2024/01/27 02:54:20;;;;;;;;;;;;;;;11.13;45.98;100571.63;4472438;32;33944;-79
2024/01/27 02:56:47;;;;;;;;;;;;;;;11.09;46.04;100585.22;4470741;32;34309;-79
2024/01/27 02:59:15;;;;;;;;;;;;;;;11.44;45.19;100578.47;4478186;32;35055;-79
2024/01/27 03:01:42;;;;;;;;;;;;;;;11.49;44.89;100592.59;4477806;32;33946;-78
2024/01/27 03:04:09;;;;;;;;;;;;;;;11.81;44.23;100595.97;4472320;32;34243;-79
2024/01/27 03:06:37;;;;;;;;;;;;;;;11.99;43.88;100586.59;4470566;32;32913;-79
2024/01/27 03:09:04;;;;;;;;;;;;;;;11.91;43.86;100595.66;4461967;32;34058;-78
2024/01/27 03:11:32;;;;;;;;;;;;;;;11.85;44.01;100603.13;4469026;32;33547;-79
2024/01/27 03:13:59;;;;;;;;;;;;;;;12.91;42.02;100599.78;4473544;32;34066;-79
2024/01/27 03:16:26;;;;;;;;;;;;;;;12.16;43.10;100605.63;4470074;32;33401;-79
2024/01/27 03:18:54;;;;;;;;;;;;;;;12.69;42.46;100619.53;4468277;32;33774;-79
2024/01/27 03:21:21;;;;;;;;;;;;;;;11.98;44.01;100621.16;4474839;32;35093;-79
2024/01/27 03:23:49;;;;;;;;;;;;;;;11.56;45.11;100641.38;4469939;32;34242;-78
2024/01/27 03:26:17;;;;;;;;;;;;;;;11.41;45.50;100649.25;4475720;32;33894;-78
2024/01/27 03:28:44;;;;;;;;;;;;;;;11.96;44.39;100666.91;4468371;32;33192;-79
2024/01/27 03:31:11;;;;;;;;;;;;;;;12.10;43.78;100659.84;4471906;32;34098;-79
2024/01/27 03:33:39;;;;;;;;;;;;;;;12.11;43.92;100668.53;4476063;32;34094;-79
2024/01/27 03:36:10;;;;;;;;;;;;;;;12.14;43.85;100668.69;4474698;32;32157;-79
2024/01/27 03:38:38;;;;;;;;;;;;;;;12.42;43.30;100675.31;4482973;32;33995;-79
2024/01/27 03:41:06;;;;;;;;;;;;;;;12.49;42.90;100675.69;4471504;32;34238;-79
2024/01/27 03:43:33;;;;;;;;;;;;;;;12.51;43.13;100686.19;4470702;32;33931;-79
2024/01/27 03:46:00;;;;;;;;;;;;;;;12.30;43.54;100697.25;4472032;32;34130;-79
2024/01/27 03:48:28;;;;;;;;;;;;;;;12.04;43.95;100692.41;4469957;32;34331;-79
2024/01/27 03:50:55;;;;;;;;;;;;;;;12.54;43.10;100701.94;4471287;32;35033;-78
2024/01/27 03:53:23;;;;;;;;;;;;;;;12.53;43.01;100693.22;4470508;32;34139;-79
2024/01/27 03:55:51;;;;;;;;;;;;;;;12.05;43.81;100695.06;4469712;32;33096;-79
2024/01/27 03:58:18;;;;;;;;;;;;;;;12.18;43.81;100701.81;4465803;32;33781;-79
2024/01/27 04:00:46;;;;;;;;;;;;;;;12.44;43.38;100707.47;4473184;32;35068;-78
2024/01/27 04:03:14;;;;;;;;;;;;;;;12.46;43.49;100708.44;4463484;32;34083;-78
2024/01/27 04:05:42;;;;;;;;;;;;;;;11.66;45.37;100722.34;4480647;32;34043;-78
2024/01/27 04:08:09;;;;;;;;;;;;;;;11.77;44.92;100708.25;4477957;32;34215;-79
2024/01/27 04:10:36;;;;;;;;;;;;;;;11.88;44.84;100733.09;4474417;32;34214;-78
2024/01/27 04:13:04;;;;;;;;;;;;;;;11.46;45.97;100729.03;4481585;32;33983;-78
2024/01/27 04:15:38;;;;;;;;;;;;;;;11.39;46.53;100741.63;4456920;32;31641;-79
2024/01/27 04:18:08;;;;;;;;;;;;;;;10.85;47.74;100749.72;4476547;32;34211;-79
2024/01/27 04:20:35;;;;;;;;;;;;;;;10.68;48.08;100726.31;4467669;32;31986;-78
2024/01/27 04:23:03;;;;;;;;;;;;;;;10.80;47.87;100739.09;4470572;32;34705;-79
2024/01/27 04:25:30;;;;;;;;;;;;;;;11.01;47.46;100742.06;4474221;32;33237;-78
2024/01/27 04:27:58;;;;;;;;;;;;;;;10.39;48.31;100742.69;4480094;32;35082;-78
2024/01/27 04:30:25;;;;;;;;;;;;;;;10.12;48.38;100734.09;4475093;32;34940;-77
2024/01/27 04:32:52;;;;;;;;;;;;;;;10.09;48.35;100772.75;4472741;32;34209;-78
2024/01/27 04:35:20;;;;;;;;;;;;;;;9.62;49.08;100744.00;4473236;32;33484;-78
2024/01/27 04:37:47;;;;;;;;;;;;;;;9.46;49.50;100772.25;4470083;32;33291;-78
2024/01/27 04:40:14;;;;;;;;;;;;;;;9.22;49.92;100779.31;4478262;32;34305;-79
2024/01/27 04:42:42;;;;;;;;;;;;;;;9.96;48.22;100776.25;4474482;32;34105;-79
2024/01/27 04:45:10;;;;;;;;;;;;;;;9.77;48.20;100774.19;4482273;32;33365;-78
2024/01/27 04:47:37;;;;;;;;;;;;;;;9.30;49.14;100769.47;4472565;32;34172;-78
2024/01/27 04:50:05;;;;;;;;;;;;;;;9.82;48.21;100775.41;4474301;32;34265;-79
2024/01/27 04:52:32;;;;;;;;;;;;;;;9.77;48.19;100774.19;4470077;32;33790;-78
2024/01/27 04:54:59;;;;;;;;;;;;;;;9.77;48.37;100795.81;4470501;32;33673;-79
2024/01/27 04:57:27;;;;;;;;;;;;;;;10.32;46.81;100798.41;4480575;32;34822;-78
2024/01/27 04:59:54;;;;;;;;;;;;;;;10.35;46.86;100808.06;4472156;32;34253;-79
2024/01/27 05:02:22;;;;;;;;;;;;;;;9.75;47.79;100812.03;4461279;32;33671;-79
2024/01/27 05:04:49;;;;;;;;;;;;;;;10.09;47.20;100814.19;4471913;32;33967;-79
2024/01/27 05:07:16;;;;;;;;;;;;;;;10.32;46.05;100806.19;4469364;32;34118;-78
2024/01/27 05:09:44;;;;;;;;;;;;;;;10.38;46.19;100811.72;4469095;32;34626;-79
2024/01/27 05:12:11;;;;;;;;;;;;;;;10.26;46.16;100818.72;4463495;32;32421;-79
2024/01/27 05:14:43;;;;;;;;;;;;;;;10.49;45.40;100806.31;4469128;32;34201;-79
2024/01/27 05:17:10;;;;;;;;;;;;;;;11.09;44.08;100808.22;4465093;32;33671;-79
2024/01/27 05:19:38;;;;;;;;;;;;;;;11.09;43.87;100823.75;4475864;32;34244;-79
2024/01/27 05:22:05;;;;;;;;;;;;;;;11.44;42.76;100811.94;4476880;32;33853;-78
2024/01/27 05:24:33;;;;;;;;;;;;;;;10.86;43.36;100818.91;4469624;32;33143;-79
2024/01/27 05:27:00;;;;;;;;;;;;;;;10.47;43.93;100826.97;4471097;32;34030;-79
2024/01/27 05:29:28;;;;;;;;;;;;;;;10.82;43.16;100823.91;4483325;32;34046;-78
2024/01/27 05:31:55;;;;;;;;;;;;;;;10.46;43.51;100793.19;4467325;32;33213;-79
2024/01/27 05:34:23;;;;;;;;;;;;;;;10.38;43.70;100828.97;4461085;32;33104;-78
2024/01/27 05:36:50;;;;;;;;;;;;;;;10.45;43.59;100831.16;4458074;32;34054;-78
2024/01/27 05:39:18;;;;;;;;;;;;;;;10.28;43.23;100832.66;4470473;32;34510;-79
2024/01/27 05:41:45;;;;;;;;;;;;;;;10.52;42.61;100840.19;4474412;32;34339;-78
2024/01/27 05:44:12;;;;;;;;;;;;;;;10.31;42.60;100819.91;4469050;32;33444;-79
2024/01/27 05:46:40;;;;;;;;;;;;;;;10.25;42.41;100858.34;4468971;32;34244;-79
2024/01/27 05:49:07;;;;;;;;;;;;;;;10.22;42.89;100866.81;4471734;32;34166;-79
2024/01/27 05:51:35;;;;;;;;;;;;;;;10.84;41.33;100867.19;4469309;32;34933;-78
2024/01/27 05:54:02;;;;;;;;;;;;;;;10.62;41.63;100881.37;4472214;32;33376;-78
2024/01/27 05:56:31;;;;;;;;;;;;;;;10.71;41.49;100881.97;4469523;32;33872;-79
2024/01/27 05:58:58;;;;;;;;;;;;;;;10.30;42.19;100900.09;4471818;32;34784;-78
2024/01/27 06:01:26;;;;;;;;;;;;;;;9.91;43.38;100920.00;4460738;32;32402;-79
2024/01/27 06:03:53;;;;;;;;;;;;;;;10.58;42.23;100926.03;4473807;32;33503;-79
2024/01/27 06:06:21;;;;;;;;;;;;;;;10.23;42.79;100937.63;4467426;32;32668;-79
2024/01/27 06:08:48;;;;;;;;;;;;;;;10.54;42.29;100929.25;4480137;32;34211;-79
2024/01/27 06:11:23;;;;;;;;;;;;;;;10.99;41.37;100914.75;4465201;32;33736;-79
2024/01/27 06:13:50;;;;;;;;;;;;;;;10.72;41.93;100929.50;4475197;32;33844;-79
2024/01/27 06:16:18;;;;;;;;;;;;;;;11.11;41.33;100925.88;4471037;32;34790;-79
2024/01/27 06:18:46;;;;;;;;;;;;;;;10.85;41.99;100929.44;4472449;32;34719;-79
2024/01/27 06:21:13;;;;;;;;;;;;;;;11.19;41.77;100935.00;4472112;32;34104;-79
2024/01/27 06:23:41;;;;;;;;;;;;;;;11.07;42.05;100931.69;4472636;32;33481;-79
2024/01/27 06:26:08;;;;;;;;;;;;;;;11.63;40.87;100928.09;4476647;32;34388;-79
2024/01/27 06:28:36;;;;;;;;;;;;;;;11.31;41.87;100928.78;4471598;32;35043;-79
2024/01/27 06:31:04;;;;;;;;;;;;;;;11.51;41.87;100937.72;4469841;32;34482;-79
2024/01/27 06:33:31;;;;;;;;;;;;;;;11.29;42.21;100932.97;4472577;32;33376;-79
2024/01/27 06:35:59;;;;;;;;;;;;;;;10.93;43.30;100945.47;4473746;32;33860;-79
2024/01/27 06:38:27;;;;;;;;;;;;;;;11.21;42.68;100943.78;4477670;32;34102;-79
2024/01/27 06:40:54;;;;;;;;;;;;;;;11.10;42.93;100949.13;4477530;32;34167;-79
2024/01/27 06:43:21;;;;;;;;;;;;;;;10.97;43.04;100931.91;4458912;32;31120;-79
2024/01/27 06:45:49;;;;;;;;;;;;;;;10.92;43.31;100957.56;4470668;32;34944;-79
2024/01/27 06:48:16;;;;;;;;;;;;;;;10.73;43.33;100945.16;4472546;32;34099;-79
2024/01/27 06:50:43;;;;;;;;;;;;;;;10.96;42.97;100946.56;4451368;32;34258;-79
2024/01/27 06:53:11;;;;;;;;;;;;;;;10.76;43.41;100952.25;4475777;32;33567;-79
2024/01/27 06:55:38;;;;;;;;;;;;;;;10.19;44.64;100946.00;4475251;32;33603;-79
2024/01/27 06:58:09;;;;;;;;;;;;;;;9.72;45.49;100928.28;4476442;32;33675;-79
2024/01/27 07:00:37;;;;;;;;;;;;;;;10.42;44.35;100931.97;4473160;32;34504;-79
2024/01/27 07:03:05;;;;;;;;;;;;;;;10.57;44.39;100951.06;4475391;32;31910;-79
2024/01/27 07:05:38;;;;;;;;;;;;;;;10.60;44.20;100947.75;4461645;32;32687;-79
2024/01/27 07:08:06;;;;;;;;;;;;;;;10.13;45.23;100950.78;4479114;32;33777;-79
2024/01/27 07:10:34;;;;;;;;;;;;;;;10.77;43.98;100948.81;4474180;32;34742;-79
2024/01/27 07:13:02;;;;;;;;;;;;;;;10.54;44.14;100931.84;4474176;32;32917;-79
2024/01/27 07:15:30;;;;;;;;;;;;;;;10.75;43.96;100953.03;4457560;32;32552;-79
2024/01/27 07:17:57;;;;;;;;;;;;;;;11.02;43.50;100956.44;4464647;32;34253;-79
2024/01/27 07:20:24;;;;;;;;;;;;;;;10.71;44.03;100956.22;4470191;32;34575;-79
2024/01/27 07:22:52;;;;;;;;;;;;;;;10.78;44.06;100971.38;4476667;32;32829;-79
2024/01/27 07:25:19;;;;;;;;;;;;;;;10.81;44.02;100972.44;4478861;32;33637;-79
2024/01/27 07:27:47;;;;;;;;;;;;;;;10.77;44.19;100980.81;4477970;32;34223;-79
2024/01/27 07:30:14;;;;;;;;;;;;;;;11.03;43.78;100973.78;4479536;32;34757;-80
2024/01/27 07:32:44;;;;;;;;;;;;;;;10.97;43.90;100983.75;4460799;32;31935;-79
2024/01/27 07:35:12;;;;;;;;;;;;;;;11.15;43.30;100984.91;4461963;32;34651;-79
2024/01/27 07:37:40;;;;;;;;;;;;;;;10.65;44.19;100995.59;4477971;32;33646;-80
2024/01/27 07:40:08;;;;;;;;;;;;;;;10.61;44.45;100993.63;4475507;32;33784;-80
2024/01/27 07:42:36;;;;;;;;;;;;;;;11.22;43.18;100991.34;4469715;32;33194;-80
2024/01/27 07:45:04;;;;;;;;;;;;;;;11.48;42.53;100979.97;4482686;32;34672;-79
2024/01/27 07:47:31;;;;;;;;;;;;;;;11.87;41.53;100977.03;4479105;32;33924;-79
2024/01/27 07:49:59;;;;;;;;;;;;;;;11.37;42.38;100970.62;4477670;32;35602;-80
2024/01/27 07:52:27;;;;;;;;;;;;;;;10.93;43.38;100986.97;4477090;32;33365;-81
2024/01/27 07:54:54;;;;;;;;;;;;;;;10.87;45.77;100987.47;4477420;32;34265;-80
2024/01/27 07:57:22;;;;;;;;;;;;;;;11.07;43.42;100982.63;4450188;32;33268;-78
2024/01/27 07:59:50;;;;;;;;;;;;;;;11.79;42.00;100989.56;4459161;32;34017;-80
2024/01/27 08:02:17;;;;;;;;;;;;;;;10.84;43.65;100991.59;4471143;32;32904;-81
2024/01/27 08:04:45;;;;;;;;;;;;;;;11.04;43.68;101010.97;4473064;32;34308;-80
2024/01/27 08:07:14;;;;;;;;;;;;;;;10.84;44.08;101020.09;4469403;32;33633;-79
2024/01/27 08:09:42;;;;;;;;;;;;;;;10.80;44.59;101025.09;4463877;32;32325;-81
2024/01/27 08:12:09;;;;;;;;;;;;;;;11.45;43.13;101021.28;4469771;32;34392;-79
2024/01/27 08:14:37;;;;;;;;;;;;;;;11.50;42.53;101029.38;4480036;32;34056;-80
2024/01/27 08:17:05;;;;;;;;;;;;;;;11.47;42.58;101030.06;4457252;32;33586;-79
2024/01/27 08:19:32;;;;;;;;;;;;;;;11.18;43.06;101030.88;4478072;32;34983;-80
2024/01/27 08:22:00;;;;;;;;;;;;;;;10.97;43.89;101040.78;4461193;32;33121;-78
2024/01/27 08:24:28;;;;;;;;;;;;;;;10.69;44.47;101044.22;4465598;32;34318;-80
2024/01/27 08:26:55;;;;;;;;;;;;;;;11.72;42.33;101044.53;4472684;32;34594;-80
2024/01/27 08:29:23;;;;;;;;;;;;;;;10.99;43.57;101044.38;4473744;32;34341;-80
2024/01/27 08:31:50;;;;;;;;;;;;;;;11.09;43.64;101041.56;4477361;32;33095;-79
2024/01/27 08:34:18;;;;;;;;;;;;;;;11.20;43.32;101024.06;4469253;32;34907;-79
2024/01/27 08:36:46;;;;;;;;;;;;;;;10.81;43.96;101045.00;4465159;32;34099;-80
2024/01/27 08:39:13;;;;;;;;;;;;;;;11.06;43.24;101035.31;4460721;32;32494;-81
2024/01/27 08:41:41;;;;;;;;;;;;;;;11.27;43.11;101048.72;4475377;32;32635;-82
2024/01/27 08:44:09;;;;;;;;;;;;;;;10.65;43.70;101057.78;4469995;32;34842;-82
2024/01/27 08:46:36;;;;;;;;;;;;;;;10.84;43.79;101059.00;4476253;32;34763;-82
2024/01/27 08:49:03;;;;;;;;;;;;;;;11.16;42.88;101053.22;4472617;32;33955;-80
2024/01/27 08:51:31;;;;;;;;;;;;;;;12.16;41.37;101062.75;4469617;32;33274;-81
2024/01/27 08:53:58;;;;;;;;;;;;;;;11.77;41.48;101067.34;4472651;32;34190;-82
2024/01/27 08:56:26;;;;;;;;;;;;;;;11.60;41.18;101062.84;4469034;32;33643;-82
2024/01/27 08:58:53;;;;;;;;;;;;;;;11.67;41.15;101059.81;4475164;32;34411;-82
2024/01/27 09:01:21;;;;;;;;;;;;;;;9.72;44.86;101055.06;4481103;32;33679;-82
2024/01/27 09:03:48;;;;;;;;;;;;;;;10.30;44.25;101074.53;4461728;32;33435;-81
2024/01/27 09:06:16;;;;;;;;;;;;;;;11.11;42.76;101084.06;4469810;32;34239;-82
2024/01/27 09:08:45;;;;;;;;;;;;;;;11.10;42.61;101084.84;4470853;32;33687;-82
2024/01/27 09:11:13;;;;;;;;;;;;;;;10.56;43.25;101072.75;4473744;32;33153;-82
2024/01/27 09:13:40;;;;;;;;;;;;;;;10.35;43.31;101067.03;4459346;32;34172;-81
2024/01/27 09:16:12;;;;;;;;;;;;;;;10.12;44.52;101074.19;4479269;32;33805;-82
2024/01/27 09:18:39;;;;;;;;;;;;;;;10.55;42.82;101084.81;4474764;32;33720;-82
2024/01/27 09:21:07;;;;;;;;;;;;;;;10.57;43.41;101088.37;4476184;32;32858;-81
2024/01/27 09:23:34;;;;;;;;;;;;;;;10.75;43.20;101091.28;4463423;32;32479;-82
2024/01/27 09:26:02;;;;;;;;;;;;;;;10.84;42.61;101087.50;4475470;32;33917;-81
2024/01/27 09:28:29;;;;;;;;;;;;;;;11.21;42.16;101078.63;4473624;32;33664;-83
2024/01/27 09:30:57;;;;;;;;;;;;;;;11.25;41.69;101084.03;4451347;32;32752;-82
2024/01/27 09:33:24;;;;;;;;;;;;;;;10.74;42.33;101060.97;4472562;32;34767;-80
2024/01/27 09:35:52;;;;;;;;;;;;;;;10.53;42.34;101057.91;4466996;32;34655;-80
2024/01/27 09:38:19;;;;;;;;;;;;;;;10.97;41.97;101069.31;4452292;32;34090;-82
2024/01/27 09:40:47;;;;;;;;;;;;;;;10.62;42.55;101074.06;4472682;32;33084;-82
2024/01/27 09:43:14;;;;;;;;;;;;;;;11.70;40.41;101064.28;4457505;32;33748;-81
2024/01/27 09:45:41;;;;;;;;;;;;;;;11.26;40.36;101065.97;4475975;32;34876;-82
2024/01/27 09:48:09;;;;;;;;;;;;;;;11.09;40.67;101071.81;4472588;32;34395;-82
2024/01/27 09:50:36;;;;;;;;;;;;;;;11.59;40.12;101090.50;4466039;32;33735;-82
2024/01/27 09:53:08;;;;;;;;;;;;;;;11.66;39.79;101093.47;4448680;32;33785;-82
2024/01/27 09:55:35;;;;;;;;;;;;;;;12.10;38.62;101092.69;4472414;32;33712;-81
2024/01/27 09:58:03;;;;;;;;;;;;;;;11.94;38.92;101104.75;4464048;32;33756;-80
2024/01/27 10:00:30;;;;;;;;;;;;;;;12.67;37.62;101093.38;4471795;32;33051;-82
2024/01/27 10:03:00;;;;;;;;;;;;;;;12.82;37.70;101099.44;4475737;32;34663;-82
2024/01/27 10:05:28;;;;;;;;;;;;;;;13.29;36.48;101106.41;4471967;32;34232;-81
2024/01/27 10:07:55;;;;;;;;;;;;;;;12.45;37.55;101101.66;4477260;32;33973;-82
2024/01/27 10:10:24;;;;;;;;;;;;;;;13.32;36.57;101103.97;4479646;32;32795;-82
2024/01/27 10:12:53;;;;;;;;;;;;;;;12.44;36.69;101092.97;4479236;32;34667;-83
2024/01/27 10:15:21;;;;;;;;;;;;;;;12.54;36.59;101086.59;4445597;32;34072;-81
2024/01/27 10:17:49;;;;;;;;;;;;;;;12.67;36.51;101089.09;4461054;32;34022;-81
2024/01/27 10:20:18;;;;;;;;;;;;;;;12.88;36.46;101088.47;4469400;32;31350;-82
2024/01/27 10:22:46;;;;;;;;;;;;;;;12.50;36.61;101080.31;4456242;32;33497;-81
2024/01/27 10:25:16;;;;;;;;;;;;;;;12.05;37.28;101097.59;4472480;32;34132;-80
2024/01/27 10:27:45;;;;;;;;;;;;;;;11.79;37.52;101091.69;4481270;32;34724;-81
2024/01/27 10:30:19;;;;;;;;;;;;;;;12.55;36.73;101072.78;4455379;32;33421;-82
2024/01/27 10:32:59;;;;;;;;;;;;;;;12.73;36.35;101068.63;4473533;32;33925;-82
2024/01/27 10:35:27;;;;;;;;;;;;;;;12.18;37.06;101075.84;4468002;32;33512;-81
2024/01/27 10:37:55;;;;;;;;;;;;;;;12.38;36.54;101088.31;4460561;32;34405;-82
2024/01/27 10:40:28;;;;;;;;;;;;;;;12.44;36.68;101084.25;4474353;32;33867;-82
2024/01/27 10:42:59;;;;;;;;;;;;;;;12.80;36.49;101101.06;4470938;32;34083;-82
2024/01/27 10:45:26;;;;;;;;;;;;;;;12.49;36.02;101077.63;4468436;32;33280;-82
2024/01/27 10:47:54;;;;;;;;;;;;;;;12.92;35.74;101093.03;4463192;32;33820;-82
2024/01/27 10:50:23;;;;;;;;;;;;;;;13.29;34.93;101092.47;4460204;32;34119;-81
2024/01/27 10:52:50;;;;;;;;;;;;;;;12.47;36.14;101074.94;4465691;32;34037;-83
2024/01/27 10:55:18;;;;;;;;;;;;;;;12.44;36.54;101074.78;4461438;32;34853;-81
2024/01/27 10:57:45;;;;;;;;;;;;;;;11.52;37.14;101111.69;4476467;32;34954;-82
2024/01/27 11:00:13;;;;;;;;;;;;;;;11.44;37.32;101102.53;4476106;32;32822;-83
2024/01/27 11:02:42;;;;;;;;;;;;;;;11.46;37.16;101106.12;4473302;32;34145;-81
2024/01/27 11:05:10;;;;;;;;;;;;;;;11.61;37.69;101116.56;4462481;32;34773;-82
2024/01/27 11:07:37;;;;;;;;;;;;;;;11.85;37.13;101086.00;4465078;32;33163;-82
2024/01/27 11:10:04;;;;;;;;;;;;;;;11.37;37.08;101083.06;4463151;32;32859;-82
2024/01/27 11:12:32;;;;;;;;;;;;;;;11.30;37.66;101106.88;4472812;32;34484;-82
2024/01/27 11:14:59;;;;;;;;;;;;;;;10.96;37.79;101116.78;4451010;32;33875;-80
2024/01/27 11:17:27;;;;;;;;;;;;;;;11.64;37.10;101100.25;4461444;32;33947;-82
2024/01/27 11:19:56;;;;;;;;;;;;;;;12.36;36.99;101091.59;4461728;32;33078;-83
2024/01/27 11:22:25;;;;;;;;;;;;;;;12.35;35.92;101062.12;4462649;32;35187;-84
2024/01/27 11:24:53;;;;;;;;;;;;;;;11.96;40.59;101084.97;4472224;32;34677;-80
2024/01/27 11:27:28;;;;;;;;;;;;;;;11.53;37.20;101092.72;4462373;32;34819;-80
2024/01/27 11:29:55;;;;;;;;;;;;;;;11.72;36.72;101067.87;4475655;32;33322;-81
2024/01/27 11:32:23;;;;;;;;;;;;;;;11.21;37.61;101089.00;4468778;32;34781;-82
2024/01/27 11:34:50;;;;;;;;;;;;;;;11.59;36.22;101067.16;4468334;32;34064;-83
2024/01/27 11:37:24;;;;;;;;;;;;;;;10.99;37.11;101060.84;4464842;32;34266;-80
2024/01/27 11:39:52;;;;;;;;;;;;;;;11.23;37.76;101068.38;4472603;32;33050;-80
2024/01/27 11:42:20;;;;;;;;;;;;;;;11.95;36.60;101056.31;4470711;32;34241;-80
2024/01/27 11:44:47;;;;;;;;;;;;;;;12.14;36.48;101058.28;4473485;32;33857;-81
2024/01/27 11:47:15;;;;;;;;;;;;;;;12.19;36.77;101062.94;4474330;32;33982;-83
2024/01/27 11:49:43;;;;;;;;;;;;;;;12.02;37.17;101073.16;4474835;32;33327;-83
2024/01/27 11:52:12;;;;;;;;;;;;;;;11.56;37.16;101061.75;4459590;32;34397;-84
2024/01/27 11:54:39;;;;;;;;;;;;;;;11.78;37.24;101071.75;4479400;32;34068;-81
2024/01/27 11:57:07;;;;;;;;;;;;;;;12.12;36.52;101057.31;4459376;32;33846;-82
2024/01/27 11:59:34;;;;;;;;;;;;;;;11.95;38.45;101072.78;4477374;32;33565;-80
2024/01/27 12:02:03;;;;;;;;;;;;;;;12.27;37.98;101060.81;4463887;32;33172;-82
2024/01/27 12:04:30;;;;;;;;;;;;;;;12.69;37.21;101045.88;4463980;32;32397;-80
2024/01/27 12:06:58;;;;;;;;;;;;;;;12.35;37.55;101054.34;4471802;32;34658;-81
2024/01/27 12:09:25;;;;;;;;;;;;;;;12.78;36.15;101055.88;4458268;32;33366;-82
2024/01/27 12:11:53;;;;;;;;;;;;;;;12.63;40.50;101045.50;4472828;32;34902;-82
2024/01/27 12:14:21;;;;;;;;;;;;;;;12.31;36.78;101028.09;4474438;32;33673;-84
2024/01/27 12:16:48;;;;;;;;;;;;;;;12.94;35.64;101053.34;4464344;32;34893;-84
2024/01/27 12:19:16;;;;;;;;;;;;;;;12.92;36.88;101056.63;4464656;32;33114;-83
2024/01/27 12:21:48;;;;;;;;;;;;;;;13.07;36.18;101064.41;4462931;32;33724;-83
2024/01/27 12:24:15;;;;;;;;;;;;;;;13.21;35.67;101057.34;4474775;32;33391;-83
2024/01/27 12:26:47;;;;;;;;;;;;;;;12.92;35.70;101082.66;4474544;32;34559;-83
2024/01/27 12:29:14;;;;;;;;;;;;;;;12.96;36.20;101082.91;4477252;32;34085;-82
2024/01/27 12:31:41;;;;;;;;;;;;;;;12.75;36.74;101085.22;4476013;32;34432;-84
2024/01/27 12:34:09;;;;;;;;;;;;;;;12.61;36.41;101093.91;4478644;32;34802;-84
2024/01/27 12:36:40;;;;;;;;;;;;;;;12.68;41.04;101090.84;4474032;32;33954;-82
2024/01/27 12:39:08;;;;;;;;;;;;;;;13.70;46.09;101086.03;4462683;32;34146;-83
2024/01/27 12:41:36;;;;;;;;;;;;;;;14.08;35.02;101068.88;4471302;32;34000;-82